createdAt,value
2018-12-27T00:00:18.778Z,86.05
2018-12-27T00:00:56.272Z,86.11
2018-12-27T00:02:03.883Z,86.05
2018-12-27T00:22:30.695Z,85.94
2018-12-27T00:24:25.134Z,85.84
2018-12-27T00:25:31.196Z,85.94
2018-12-27T00:26:26.339Z,86.05
2018-12-27T00:27:34.717Z,85.94
2018-12-27T00:28:26.195Z,85.63
2018-12-27T00:29:21.719Z,86.25
2018-12-27T00:30:35.752Z,85.84
2018-12-27T00:31:21.233Z,85.84
2018-12-27T00:32:22.247Z,85.84
2018-12-27T00:33:24.262Z,85.53
2018-12-27T00:34:22.490Z,85.33
2018-12-27T00:35:21.243Z,85.74
2018-12-27T00:36:24.747Z,85.84
2018-12-27T00:37:26.714Z,85.84
2018-12-27T00:38:26.205Z,85.84
2018-12-27T00:39:26.681Z,85.02
2018-12-27T00:40:21.691Z,85.12
2018-12-27T00:42:11.723Z,85.33
2018-12-27T00:42:22.328Z,85.02
2018-12-27T00:43:20.314Z,85.02
2018-12-27T00:44:21.348Z,85.74
2018-12-27T00:45:21.756Z,86.25
2018-12-27T00:50:56.662Z,85.94
2018-12-27T00:51:55.646Z,85.74
2018-12-27T00:52:56.698Z,85.84
2018-12-27T00:55:20.533Z,86.46
2018-12-27T00:56:29.214Z,85.63
2018-12-27T00:57:20.086Z,86.05
2018-12-27T00:58:21.308Z,85.74
2018-12-27T00:59:20.136Z,85.63
2018-12-27T01:00:21.194Z,85.74
2018-12-27T01:01:19.498Z,85.53
2018-12-27T01:02:19.502Z,85.63
2018-12-27T01:03:21.131Z,87.07
2018-12-27T01:04:19.496Z,88.41
2018-12-27T01:05:19.461Z,86.62
2018-12-27T01:06:19.492Z,86.52
2018-12-27T01:07:19.462Z,85.80
2018-12-27T01:08:19.433Z,85.08
2018-12-27T01:09:19.425Z,85.70
2018-12-27T01:10:19.468Z,84.56
2018-12-27T01:11:19.450Z,83.85
2018-12-27T01:12:20.103Z,83.95
2018-12-27T01:13:21.143Z,84.47
2018-12-27T01:14:19.382Z,84.67
2018-12-27T01:15:19.355Z,85.18
2018-12-27T01:16:19.379Z,84.32
2018-12-27T01:17:19.326Z,84.01
2018-12-27T01:18:19.336Z,83.91
2018-12-27T01:19:20.575Z,83.50
2018-12-27T01:20:19.324Z,83.40
2018-12-27T01:21:19.289Z,83.50
2018-12-27T01:22:20.097Z,83.70
2018-12-27T01:23:19.329Z,83.54
2018-12-27T01:24:20.166Z,84.26
2018-12-27T01:25:22.258Z,83.54
2018-12-27T01:26:21.179Z,83.85
2018-12-27T01:27:41.102Z,83.75
2018-12-27T01:28:20.683Z,83.68
2018-12-27T01:29:20.611Z,83.85
2018-12-27T01:30:21.172Z,83.78
2018-12-27T01:31:21.248Z,84.09
2018-12-27T01:33:53.742Z,84.56
2018-12-27T01:36:24.244Z,84.05
2018-12-27T01:38:56.190Z,84.47
2018-12-27T01:39:53.204Z,84.61
2018-12-27T01:42:11.917Z,84.50
2018-12-27T01:43:10.157Z,85.33
2018-12-27T01:45:35.956Z,84.98
2018-12-27T01:46:29.979Z,85.12
2018-12-27T01:47:29.329Z,85.74
2018-12-27T01:48:30.866Z,84.81
2018-12-27T01:49:30.331Z,85.53
2018-12-27T01:50:29.334Z,85.12
2018-12-27T01:51:29.854Z,85.33
2018-12-27T01:52:29.834Z,85.22
2018-12-27T01:53:30.337Z,85.22
2018-12-27T01:54:29.832Z,85.12
2018-12-27T01:55:29.906Z,85.02
2018-12-27T01:56:39.041Z,85.33
2018-12-27T01:57:28.638Z,85.43
2018-12-27T01:58:29.875Z,86.25
2018-12-27T01:59:29.374Z,85.12
2018-12-27T02:00:30.535Z,85.63
2018-12-27T02:01:30.370Z,85.43
2018-12-27T02:02:28.930Z,85.43
2018-12-27T02:03:32.358Z,85.33
2018-12-27T02:04:29.361Z,85.12
2018-12-27T02:05:29.893Z,85.33
2018-12-27T02:06:29.377Z,85.33
2018-12-27T02:07:31.327Z,85.02
2018-12-27T02:08:28.912Z,85.16
2018-12-27T02:09:28.982Z,85.12
2018-12-27T02:10:29.574Z,85.22
2018-12-27T02:11:29.039Z,85.53
2018-12-27T02:12:28.894Z,84.85
